createdAt,value
2022-10-13T00:00:16.279Z,101651.22
2022-10-13T00:02:44.177Z,101644.00
2022-10-13T00:05:13.387Z,101645.63
2022-10-13T00:07:41.285Z,101643.00
2022-10-13T00:10:09.718Z,101645.75
2022-10-13T00:12:38.154Z,101639.41
2022-10-13T00:15:10.321Z,101645.63
2022-10-13T00:17:38.241Z,101636.53
2022-10-13T00:20:07.755Z,101638.28
2022-10-13T00:22:36.935Z,101631.94
2022-10-13T00:25:05.583Z,101634.78
2022-10-13T00:27:33.361Z,101632.16
2022-10-13T00:30:01.210Z,101628.59
2022-10-13T00:32:28.948Z,101626.69
2022-10-13T00:34:57.962Z,101631.31
2022-10-13T00:37:25.823Z,101635.06
2022-10-13T00:39:54.916Z,101632.16
2022-10-13T00:42:26.333Z,101624.22
2022-10-13T00:45:07.050Z,101626.69
2022-10-13T00:47:40.721Z,101619.59
2022-10-13T00:50:12.114Z,101617.09
2022-10-13T00:52:42.744Z,101620.72
2022-10-13T00:55:18.087Z,101614.25
2022-10-13T00:57:47.720Z,101617.19
2022-10-13T01:00:16.282Z,101619.22
2022-10-13T01:02:44.062Z,101608.38
2022-10-13T01:05:11.790Z,101611.09
2022-10-13T01:07:39.574Z,101611.22
2022-10-13T01:10:08.257Z,101607.50
2022-10-13T01:12:48.964Z,101602.78
2022-10-13T01:15:26.645Z,101598.41
2022-10-13T01:18:03.361Z,101588.31
2022-10-13T01:20:51.161Z,101584.72
2022-10-13T01:23:31.477Z,101593.03
2022-10-13T01:26:25.076Z,101588.56
2022-10-13T01:29:12.929Z,101594.13
2022-10-13T01:31:49.151Z,101580.44
2022-10-13T01:34:24.270Z,101578.59
2022-10-13T01:36:59.793Z,101577.59
2022-10-13T01:39:37.024Z,101574.84
2022-10-13T01:42:13.929Z,101575.72
2022-10-13T01:44:48.282Z,101579.34
2022-10-13T01:47:19.520Z,101571.13
2022-10-13T01:49:49.130Z,101574.84
2022-10-13T01:52:20.561Z,101574.63
2022-10-13T01:54:49.734Z,101574.63
2022-10-13T01:57:35.090Z,101578.13
2022-10-13T02:00:06.243Z,101580.00
2022-10-13T02:02:48.902Z,101573.38
2022-10-13T02:05:26.715Z,101568.66
2022-10-13T02:07:59.126Z,101556.84
2022-10-13T02:10:33.557Z,101563.19
2022-10-13T02:13:03.600Z,101557.72
2022-10-13T02:15:36.778Z,101556.72
2022-10-13T02:18:09.152Z,101557.59
2022-10-13T02:20:37.666Z,101554.97
2022-10-13T02:23:11.887Z,101557.50
2022-10-13T02:25:40.355Z,101560.34
2022-10-13T02:28:08.363Z,101552.88
2022-10-13T02:30:44.893Z,101555.63
2022-10-13T02:33:14.657Z,101556.34
2022-10-13T02:35:42.937Z,101559.09
2022-10-13T02:38:11.136Z,101557.13
2022-10-13T02:40:39.707Z,101557.13
2022-10-13T02:43:07.620Z,101552.50
2022-10-13T02:45:35.489Z,101551.53
2022-10-13T02:48:03.268Z,101557.00
2022-10-13T02:50:32.453Z,101558.75
2022-10-13T02:53:00.409Z,101554.25
2022-10-13T02:55:28.375Z,101557.00
2022-10-13T02:57:59.178Z,101558.97
2022-10-13T03:00:27.616Z,101558.00
2022-10-13T03:02:55.436Z,101555.38
2022-10-13T03:05:23.583Z,101542.53
2022-10-13T03:07:52.734Z,101547.91
2022-10-13T03:10:20.587Z,101544.53
2022-10-13T03:12:50.884Z,101545.41
2022-10-13T03:15:18.886Z,101541.78
2022-10-13T03:17:47.883Z,101539.19
2022-10-13T03:20:15.965Z,101530.09
2022-10-13T03:22:47.371Z,101531.09
2022-10-13T03:25:19.011Z,101527.47
2022-10-13T03:27:46.831Z,101530.31
2022-10-13T03:30:14.766Z,101533.06
2022-10-13T03:32:42.502Z,101529.44
2022-10-13T03:35:10.636Z,101519.38
2022-10-13T03:37:38.365Z,101515.88
2022-10-13T03:40:07.396Z,101522.22
2022-10-13T03:42:38.208Z,101510.16
2022-10-13T03:45:06.786Z,101505.06
2022-10-13T03:47:37.009Z,101515.00
2022-10-13T03:50:06.814Z,101500.44
2022-10-13T03:52:34.611Z,101500.59
2022-10-13T03:55:02.499Z,101503.31
2022-10-13T03:57:30.743Z,101504.19
2022-10-13T04:00:00.059Z,101510.53
2022-10-13T04:02:29.464Z,101500.69
2022-10-13T04:04:59.289Z,101498.84
2022-10-13T04:07:27.026Z,101494.22
2022-10-13T04:09:54.867Z,101498.72
2022-10-13T04:12:22.911Z,101495.09
2022-10-13T04:14:50.908Z,101479.56
2022-10-13T04:17:20.048Z,101493.09
2022-10-13T04:19:47.926Z,101501.47
2022-10-13T04:22:15.757Z,101500.59
2022-10-13T04:24:48.897Z,101488.75
2022-10-13T04:27:19.073Z,101495.97
2022-10-13T04:29:47.258Z,101487.75
2022-10-13T04:32:15.015Z,101493.97
2022-10-13T04:34:44.649Z,101482.03
2022-10-13T04:37:12.427Z,101484.75
2022-10-13T04:39:40.214Z,101477.41
2022-10-13T04:42:08.005Z,101477.41
2022-10-13T04:44:38.956Z,101476.44
2022-10-13T04:47:08.148Z,101483.66
2022-10-13T04:49:35.882Z,101478.94
2022-10-13T04:52:05.036Z,101468.72
2022-10-13T04:54:32.808Z,101463.38
2022-10-13T04:57:00.552Z,101474.19
2022-10-13T04:59:28.627Z,101466.84
2022-10-13T05:01:56.361Z,101469.47
2022-10-13T05:04:24.113Z,101457.53
2022-10-13T05:07:16.332Z,101464.75
2022-10-13T05:09:42.640Z,101461.88
2022-10-13T05:12:13.852Z,101464.75
2022-10-13T05:14:41.649Z,101469.13
2022-10-13T05:17:09.579Z,101463.50
2022-10-13T05:19:37.397Z,101461.63
2022-10-13T05:22:05.281Z,101458.78
2022-10-13T05:24:37.279Z,101465.13
2022-10-13T05:27:09.845Z,101460.41
2022-10-13T05:29:37.989Z,101463.25
2022-10-13T05:32:06.586Z,101457.53
2022-10-13T05:34:34.459Z,101451.06
2022-10-13T05:37:02.726Z,101461.00
2022-10-13T05:39:33.015Z,101454.53
2022-10-13T05:42:00.866Z,101434.38
2022-10-13T05:44:30.250Z,101446.94
2022-10-13T05:46:58.195Z,101443.34
2022-10-13T05:49:26.183Z,101447.81
2022-10-13T05:51:57.001Z,101451.44
2022-10-13T05:54:31.074Z,101446.84
2022-10-13T05:57:04.005Z,101441.22
2022-10-13T05:59:37.999Z,101442.94
2022-10-13T06:02:09.172Z,101443.97
2022-10-13T06:04:41.136Z,101441.22
2022-10-13T06:07:10.162Z,101422.19
2022-10-13T06:09:39.866Z,101427.53
2022-10-13T06:12:09.109Z,101438.63
2022-10-13T06:14:38.546Z,101421.19
2022-10-13T06:17:08.542Z,101407.59
2022-10-13T06:19:36.545Z,101415.94
2022-10-13T06:22:08.256Z,101418.69
2022-10-13T06:24:36.169Z,101410.47
2022-10-13T06:27:04.905Z,101423.28
2022-10-13T06:29:33.487Z,101431.50
2022-10-13T06:32:02.920Z,101427.78
2022-10-13T06:34:30.705Z,101422.41
2022-10-13T06:36:58.501Z,101439.72
2022-10-13T06:39:27.078Z,101436.09
2022-10-13T06:41:55.368Z,101430.63
2022-10-13T06:44:31.323Z,101411.34
2022-10-13T06:47:04.104Z,101416.81
2022-10-13T06:49:32.075Z,101432.38
2022-10-13T06:52:00.058Z,101415.81
2022-10-13T06:54:27.877Z,101417.69
2022-10-13T06:56:55.670Z,101422.19
2022-10-13T06:59:23.602Z,101423.06
2022-10-13T07:01:51.802Z,101423.78
2022-10-13T07:04:24.014Z,101427.38
2022-10-13T07:06:54.340Z,101433.00
2022-10-13T07:09:22.371Z,101427.25
2022-10-13T07:11:50.529Z,101430.00
2022-10-13T07:14:18.285Z,101421.66
2022-10-13T07:16:46.088Z,101427.03
2022-10-13T07:19:14.170Z,101425.03
2022-10-13T07:21:43.741Z,101423.78
2022-10-13T07:24:12.896Z,101440.84
2022-10-13T07:26:40.673Z,101428.88
2022-10-13T07:29:08.628Z,101428.63
2022-10-13T07:31:36.387Z,101431.13
2022-10-13T07:34:04.958Z,101418.03
2022-10-13T07:36:33.378Z,101401.34
2022-10-13T07:39:03.910Z,101415.50
2022-10-13T07:41:32.409Z,101411.66
2022-10-13T07:44:00.377Z,101410.56
2022-10-13T07:46:28.232Z,101412.91
2022-10-13T07:48:56.610Z,101419.91
2022-10-13T07:51:24.549Z,101415.13
2022-10-13T07:53:52.401Z,101417.50
2022-10-13T07:56:21.544Z,101417.22
2022-10-13T07:58:49.653Z,101428.72
2022-10-13T08:01:18.192Z,101420.84
2022-10-13T08:03:49.903Z,101432.16
2022-10-13T08:06:19.788Z,101427.00
2022-10-13T08:08:48.470Z,101432.88
2022-10-13T08:11:18.577Z,101423.97
2022-10-13T08:13:52.449Z,101424.78
2022-10-13T08:16:23.399Z,101423.25
2022-10-13T08:18:51.663Z,101429.69
2022-10-13T08:24:12.992Z,101426.13
2022-10-13T08:26:41.444Z,101424.44
2022-10-13T08:29:26.790Z,101438.09
2022-10-13T08:31:55.319Z,101432.06
2022-10-13T08:34:23.645Z,101447.00
2022-10-13T08:36:53.490Z,101433.59
2022-10-13T08:39:25.544Z,101427.81
2022-10-13T08:41:55.269Z,101437.13
2022-10-13T08:47:31.484Z,101415.31
2022-10-13T08:50:03.206Z,101416.03
2022-10-13T08:52:46.055Z,101422.13
2022-10-13T08:55:21.362Z,101420.25
2022-10-13T08:57:49.520Z,101426.63
2022-10-13T09:00:19.675Z,101420.81
2022-10-13T09:02:50.687Z,101412.75
2022-10-13T09:05:28.442Z,101415.19
2022-10-13T09:08:06.612Z,101414.19
2022-10-13T09:10:46.736Z,101414.94
2022-10-13T09:13:18.306Z,101410.44
2022-10-13T09:15:50.434Z,101408.28
2022-10-13T09:18:18.356Z,101413.91
2022-10-13T09:20:46.128Z,101423.47
2022-10-13T09:23:21.187Z,101417.59
2022-10-13T09:25:50.536Z,101412.91
2022-10-13T09:28:23.549Z,101402.56
2022-10-13T09:31:03.982Z,101406.78
2022-10-13T09:33:36.328Z,101397.34
2022-10-13T09:36:12.070Z,101405.19
2022-10-13T09:38:41.074Z,101403.03
2022-10-13T09:41:16.887Z,101410.69
2022-10-13T09:43:59.843Z,101401.31
2022-10-13T09:46:32.894Z,101402.78
2022-10-13T09:49:05.055Z,101398.56
2022-10-13T09:51:38.740Z,101394.53
2022-10-13T09:54:29.928Z,101388.44
2022-10-13T09:57:02.736Z,101392.34
2022-10-13T09:59:34.837Z,101388.75
2022-10-13T10:02:21.341Z,101382.50
2022-10-13T10:04:54.218Z,101372.50
2022-10-13T10:07:29.899Z,101370.28
2022-10-13T10:10:02.776Z,101365.81
2022-10-13T10:12:34.756Z,101361.47
2022-10-13T10:15:02.643Z,101357.25
2022-10-13T10:17:38.704Z,101368.81
2022-10-13T10:20:24.993Z,101368.94
2022-10-13T10:23:00.499Z,101356.44
2022-10-13T10:25:34.893Z,101358.41
2022-10-13T10:28:33.261Z,101351.47
2022-10-13T10:31:10.992Z,101350.84
2022-10-13T10:33:50.964Z,101355.59
2022-10-13T10:36:24.633Z,101346.00
2022-10-13T10:38:56.106Z,101339.00
2022-10-13T10:41:38.455Z,101353.66
2022-10-13T10:44:11.030Z,101341.41
2022-10-13T10:46:43.427Z,101346.00
2022-10-13T10:49:19.581Z,101346.09
2022-10-13T10:51:48.034Z,101334.28
2022-10-13T10:54:26.937Z,101340.31
2022-10-13T10:56:57.383Z,101328.47
2022-10-13T10:59:40.177Z,101328.25
2022-10-13T11:02:21.170Z,101330.44
2022-10-13T11:04:54.570Z,101317.34
2022-10-13T11:07:58.290Z,101317.81
2022-10-13T11:10:27.202Z,101321.94
2022-10-13T11:13:22.456Z,101313.06
2022-10-13T11:15:50.694Z,101315.53
2022-10-13T11:19:05.595Z,101317.50
2022-10-13T11:22:16.867Z,101318.22
2022-10-13T11:24:47.697Z,101316.88
2022-10-13T11:27:39.100Z,101316.53
2022-10-13T11:30:42.494Z,101316.00
2022-10-13T11:33:36.488Z,101310.47
2022-10-13T11:36:41.848Z,101301.16
2022-10-13T11:39:42.798Z,101304.78
2022-10-13T11:42:27.400Z,101301.16
2022-10-13T11:44:57.946Z,101298.53
2022-10-13T11:47:58.252Z,101298.72
2022-10-13T11:50:36.309Z,101294.03
2022-10-13T11:53:18.683Z,101295.94
2022-10-13T11:55:51.517Z,101306.28
2022-10-13T11:58:22.822Z,101302.66
2022-10-13T12:00:52.821Z,101308.53
2022-10-13T12:03:22.637Z,101297.78
2022-10-13T12:05:52.159Z,101300.69
2022-10-13T12:08:22.283Z,101295.53
2022-10-13T12:10:57.225Z,101299.47
2022-10-13T12:13:29.769Z,101298.22
2022-10-13T12:16:00.828Z,101298.69
2022-10-13T12:18:33.834Z,101291.59
2022-10-13T12:21:04.361Z,101302.97
2022-10-13T12:23:33.639Z,101298.78
2022-10-13T12:26:02.229Z,101295.66
2022-10-13T12:28:45.693Z,101298.56
2022-10-13T12:31:20.457Z,101294.38
2022-10-13T12:33:54.445Z,101285.53
2022-10-13T12:36:29.345Z,101290.69
2022-10-13T12:39:01.844Z,101284.59
2022-10-13T12:41:31.854Z,101286.84
2022-10-13T12:44:04.049Z,101278.69
2022-10-13T12:46:40.215Z,101271.59
2022-10-13T12:49:08.921Z,101275.72
2022-10-13T12:51:37.964Z,101269.47
2022-10-13T12:54:10.537Z,101270.50
2022-10-13T12:56:38.405Z,101268.06
2022-10-13T12:59:18.008Z,101274.28
2022-10-13T13:01:55.324Z,101269.94
2022-10-13T13:04:33.151Z,101261.34
2022-10-13T13:07:02.881Z,101262.38
2022-10-13T13:09:31.979Z,101260.34
2022-10-13T13:12:23.545Z,101258.59
2022-10-13T13:14:55.005Z,101257.41
2022-10-13T13:17:45.749Z,101251.72
2022-10-13T13:20:22.844Z,101253.44
2022-10-13T13:22:51.840Z,101249.13
2022-10-13T13:25:19.907Z,101250.00
2022-10-13T13:27:47.837Z,101252.78
2022-10-13T13:30:21.214Z,101255.53
2022-10-13T13:32:52.728Z,101245.81
2022-10-13T13:35:20.517Z,101241.00
2022-10-13T13:37:51.177Z,101244.50
2022-10-13T13:40:21.684Z,101250.00
2022-10-13T13:42:49.590Z,101251.19
2022-10-13T13:45:20.730Z,101244.50
2022-10-13T13:47:49.082Z,101242.91
2022-10-13T13:50:20.277Z,101237.38
2022-10-13T13:52:57.064Z,101238.56
2022-10-13T13:55:25.429Z,101244.94
2022-10-13T13:57:53.192Z,101238.72
2022-10-13T14:00:23.222Z,101238.56
2022-10-13T14:02:55.763Z,101236.28
2022-10-13T14:05:23.705Z,101240.06
2022-10-13T14:07:54.967Z,101239.22
2022-10-13T14:10:23.113Z,101236.06
2022-10-13T14:12:51.534Z,101225.34
2022-10-13T14:15:19.682Z,101225.50
2022-10-13T14:17:49.208Z,101229.28
2022-10-13T14:20:17.149Z,101226.84
2022-10-13T14:22:45.482Z,101230.63
2022-10-13T14:25:15.309Z,101231.66
2022-10-13T14:27:45.723Z,101234.72
2022-10-13T14:30:14.796Z,101227.47
2022-10-13T14:32:42.794Z,101219.38
2022-10-13T14:35:12.054Z,101218.31
2022-10-13T14:37:40.153Z,101218.66
2022-10-13T14:40:09.071Z,101217.78
2022-10-13T14:42:36.878Z,101214.31
2022-10-13T14:45:06.613Z,101213.28
2022-10-13T14:47:34.356Z,101213.44
2022-10-13T14:50:02.237Z,101212.72
2022-10-13T14:52:31.659Z,101211.69
2022-10-13T14:55:00.011Z,101203.56
2022-10-13T14:57:27.885Z,101199.13
2022-10-13T15:00:02.110Z,101198.25
2022-10-13T15:02:34.589Z,101187.50
2022-10-13T15:05:02.584Z,101194.91
2022-10-13T15:07:32.627Z,101192.00
2022-10-13T15:10:07.889Z,101189.56
2022-10-13T15:12:35.869Z,101187.13
2022-10-13T15:15:04.420Z,101190.75
2022-10-13T15:17:33.325Z,101187.13
2022-10-13T15:20:01.220Z,101183.50
2022-10-13T15:22:29.086Z,101172.63
2022-10-13T15:24:58.529Z,101180.03
2022-10-13T15:27:26.517Z,101184.84
2022-10-13T15:29:54.548Z,101188.63
2022-10-13T15:32:22.542Z,101179.66
2022-10-13T15:34:54.351Z,101177.03
2022-10-13T15:37:22.183Z,101178.19
2022-10-13T15:39:54.532Z,101173.69
2022-10-13T15:42:26.317Z,101174.03
2022-10-13T15:45:11.038Z,101172.59
2022-10-13T15:47:39.768Z,101171.00
2022-10-13T15:50:08.695Z,101170.13
2022-10-13T15:52:38.948Z,101164.63
2022-10-13T15:55:07.324Z,101164.09
2022-10-13T15:57:36.624Z,101159.59
2022-10-13T16:00:05.472Z,101159.91
2022-10-13T16:02:40.446Z,101159.38
2022-10-13T16:05:10.199Z,101165.75
2022-10-13T16:07:39.320Z,101156.75
2022-10-13T16:10:08.069Z,101160.53
2022-10-13T16:12:39.824Z,101149.50
2022-10-13T16:15:09.001Z,101150.84
2022-10-13T16:17:37.313Z,101145.50
2022-10-13T16:20:06.374Z,101146.19
2022-10-13T16:22:34.232Z,101146.38
2022-10-13T16:25:02.104Z,101155.66
2022-10-13T16:27:29.920Z,101155.81
2022-10-13T16:29:59.292Z,101155.66
2022-10-13T16:32:27.212Z,101161.31
2022-10-13T16:34:55.533Z,101160.44
2022-10-13T16:37:23.832Z,101157.69
2022-10-13T16:39:52.263Z,101166.81
2022-10-13T16:42:20.309Z,101172.34
2022-10-13T16:44:48.608Z,101176.09
2022-10-13T16:47:18.798Z,101169.59
2022-10-13T16:49:47.454Z,101171.63
2022-10-13T16:52:15.864Z,101178.16
2022-10-13T16:54:44.860Z,101180.91
2022-10-13T16:57:12.681Z,101186.75
2022-10-13T16:59:40.588Z,101183.28
2022-10-13T17:02:12.940Z,101181.53
2022-10-13T17:04:43.355Z,101185.31
2022-10-13T17:07:11.175Z,101184.75
2022-10-13T17:09:44.094Z,101177.66
2022-10-13T17:12:12.135Z,101186.94
2022-10-13T17:14:40.225Z,101186.38
2022-10-13T17:17:07.996Z,101195.69
2022-10-13T17:19:35.839Z,101180.31
2022-10-13T17:22:04.985Z,101185.84
2022-10-13T17:24:32.734Z,101186.13
2022-10-13T17:27:00.649Z,101184.56
2022-10-13T17:29:28.371Z,101194.88
2022-10-13T17:31:56.752Z,101188.63
2022-10-13T17:34:24.563Z,101192.56
2022-10-13T17:36:52.393Z,101196.34
2022-10-13T17:39:21.574Z,101208.06
2022-10-13T17:41:49.566Z,101206.66
2022-10-13T17:44:20.788Z,101201.28
2022-10-13T17:46:49.754Z,101192.16
2022-10-13T17:49:18.326Z,101206.06
2022-10-13T17:51:46.652Z,101207.09
2022-10-13T17:54:16.424Z,101200.72
2022-10-13T17:56:46.531Z,101207.09
2022-10-13T18:01:08.187Z,101207.41
2022-10-13T18:03:03.255Z,101208.84
2022-10-13T18:05:31.470Z,101205.81
2022-10-13T18:08:06.304Z,101208.44
2022-10-13T18:11:03.621Z,101205.06
2022-10-13T18:13:25.853Z,101197.66
2022-10-13T18:15:53.639Z,101199.69
2022-10-13T18:18:21.539Z,101196.94
2022-10-13T18:20:49.372Z,101207.97
2022-10-13T18:23:17.418Z,101207.97
2022-10-13T18:25:45.237Z,101202.63
2022-10-13T18:28:13.074Z,101199.00
2022-10-13T18:30:42.277Z,101204.50
2022-10-13T18:33:10.137Z,101208.28
2022-10-13T18:35:37.987Z,101203.78
2022-10-13T18:38:06.308Z,101203.78
2022-10-13T18:40:36.240Z,101207.56
2022-10-13T18:43:04.131Z,101212.19
2022-10-13T18:45:35.889Z,101206.69
2022-10-13T18:48:05.273Z,101210.47
2022-10-13T18:50:33.238Z,101213.22
2022-10-13T18:53:01.358Z,101204.94
2022-10-13T18:55:30.837Z,101208.72
2022-10-13T18:57:59.081Z,101210.59
2022-10-13T19:00:26.899Z,101206.97
2022-10-13T19:02:54.829Z,101205.09
2022-10-13T19:05:23.940Z,101221.47
2022-10-13T19:07:57.991Z,101219.03
2022-10-13T19:10:26.013Z,101226.44
2022-10-13T19:12:53.846Z,101227.31
2022-10-13T19:15:22.422Z,101228.31
2022-10-13T19:17:50.982Z,101224.69
2022-10-13T19:20:18.908Z,101224.84
2022-10-13T19:22:48.105Z,101220.34
2022-10-13T19:25:16.447Z,101219.78
2022-10-13T19:27:44.302Z,101223.56
2022-10-13T19:30:13.242Z,101229.06
2022-10-13T19:32:41.223Z,101226.59
2022-10-13T19:35:09.296Z,101223.97
2022-10-13T19:37:37.742Z,101225.00
2022-10-13T19:40:08.602Z,101228.75
2022-10-13T19:42:36.428Z,101230.97
2022-10-13T19:45:06.808Z,101229.09
2022-10-13T19:47:34.711Z,101235.88
2022-10-13T19:50:02.531Z,101235.19
2022-10-13T19:52:30.717Z,101233.59
2022-10-13T19:54:58.636Z,101235.63
2022-10-13T19:57:27.853Z,101238.38
2022-10-13T19:59:55.889Z,101235.91
2022-10-13T20:02:23.744Z,101233.31
2022-10-13T20:04:51.835Z,101232.44
2022-10-13T20:07:19.888Z,101239.84
2022-10-13T20:09:47.863Z,101237.22
2022-10-13T20:12:15.758Z,101241.00
2022-10-13T20:14:48.814Z,101234.47
2022-10-13T20:17:16.711Z,101245.63
2022-10-13T20:19:44.518Z,101248.38
2022-10-13T20:22:12.626Z,101242.00
2022-10-13T20:24:40.363Z,101246.63
2022-10-13T20:27:08.410Z,101245.75
2022-10-13T20:29:36.187Z,101237.69
2022-10-13T20:32:05.682Z,101244.75
2022-10-13T20:34:34.025Z,101244.19
2022-10-13T20:37:01.871Z,101247.81
2022-10-13T20:39:30.168Z,101241.44
2022-10-13T20:41:58.023Z,101249.69
2022-10-13T20:44:26.113Z,101243.31
2022-10-13T20:46:53.962Z,101239.72
2022-10-13T20:49:24.001Z,101250.56
2022-10-13T20:51:51.827Z,101249.84
2022-10-13T20:54:19.668Z,101248.97
2022-10-13T20:56:47.878Z,101244.47
2022-10-13T20:59:15.814Z,101253.59
2022-10-13T21:01:44.156Z,101251.00
2022-10-13T21:04:12.306Z,101253.75
2022-10-13T21:06:42.105Z,101251.88
2022-10-13T21:09:10.533Z,101244.75
2022-10-13T21:11:40.626Z,101247.50
2022-10-13T21:14:09.661Z,101243.06
2022-10-13T21:16:37.839Z,101243.06
2022-10-13T21:19:10.241Z,101241.44
2022-10-13T21:21:38.155Z,101241.31
2022-10-13T21:24:11.925Z,101246.63
2022-10-13T21:26:41.156Z,101241.31
2022-10-13T21:29:14.389Z,101246.09
2022-10-13T21:31:42.190Z,101238.69
2022-10-13T21:34:11.443Z,101244.06
2022-10-13T21:36:42.384Z,101238.69
2022-10-13T21:39:13.457Z,101236.97
2022-10-13T21:41:41.375Z,101246.09
2022-10-13T21:44:09.119Z,101249.72
2022-10-13T21:46:37.085Z,101244.22
2022-10-13T21:49:06.847Z,101239.56
2022-10-13T21:51:36.754Z,101245.06
2022-10-13T21:54:08.901Z,101236.81
2022-10-13T21:56:39.979Z,101236.81
2022-10-13T21:59:08.213Z,101240.72
2022-10-13T22:01:36.035Z,101238.84
2022-10-13T22:04:10.811Z,101245.22
2022-10-13T22:06:38.650Z,101242.59
2022-10-13T22:09:07.505Z,101246.09
2022-10-13T22:11:38.807Z,101240.59
2022-10-13T22:14:11.493Z,101238.97
2022-10-13T22:16:41.821Z,101236.97
2022-10-13T22:19:10.542Z,101237.97
2022-10-13T22:21:44.006Z,101241.44
2022-10-13T22:24:14.102Z,101231.59
2022-10-13T22:26:44.326Z,101235.06
2022-10-13T22:29:14.917Z,101238.69
2022-10-13T22:31:44.021Z,101228.84
2022-10-13T22:34:14.991Z,101234.22
2022-10-13T22:36:45.049Z,101228.84
2022-10-13T22:39:14.011Z,101228.84
2022-10-13T22:41:43.229Z,101230.44
2022-10-13T22:44:11.443Z,101232.34
2022-10-13T22:46:40.490Z,101234.22
2022-10-13T22:49:13.414Z,101228.84
2022-10-13T22:51:41.548Z,101227.97
2022-10-13T22:54:10.748Z,101229.56
2022-10-13T22:56:38.659Z,101228.72
2022-10-13T22:59:09.116Z,101223.94
2022-10-13T23:01:37.366Z,101232.34
2022-10-13T23:04:05.354Z,101228.72
2022-10-13T23:06:34.969Z,101224.94
2022-10-13T23:09:03.917Z,101221.31
2022-10-13T23:11:31.813Z,101222.34
2022-10-13T23:14:01.620Z,101220.31
2022-10-13T23:16:31.417Z,101220.31
2022-10-13T23:18:59.275Z,101211.34
2022-10-13T23:21:29.541Z,101214.81
2022-10-13T23:23:58.661Z,101213.06
2022-10-13T23:26:27.063Z,101208.59
2022-10-13T23:28:55.605Z,101209.44
2022-10-13T23:31:23.674Z,101200.31
2022-10-13T23:33:52.924Z,101204.69
2022-10-13T23:36:22.467Z,101207.44
2022-10-13T23:38:55.799Z,101200.03
2022-10-13T23:41:23.688Z,101192.22
2022-10-13T23:43:51.489Z,101188.44
2022-10-13T23:46:19.734Z,101194.81
2022-10-13T23:48:47.899Z,101188.44
2022-10-13T23:51:19.037Z,101188.31
2022-10-13T23:53:47.920Z,101192.94
2022-10-13T23:56:16.315Z,101185.84
2022-10-13T23:58:45.364Z,101184.84
